Home > Products > Valid Products > TAF

000
FTUS43 KLSX 242300
TAFSUS
TAF
KSUS 242336Z 2500/2524 VRB03KT P6SM FEW050 SCT250
     FM250900 VRB03KT 5SM BR FEW030 SCT250
      TEMPO 2511/2513 2SM BR
     FM251500 31007KT P6SM SKC=



000
FTUS43 KLSX 242300
TAFUIN
TAF
KUIN 242336Z 2500/2524 19006KT P6SM BKN250
     FM250500 24006KT 3SM BR FEW015 SCT250
     FM250900 28006KT 1SM BR SKC
     FM251500 32007KT P6SM SKC=



000
FTUS43 KLSX 242300
TAFSTL
TAF
KSTL 242336Z 2500/2606 18006KT P6SM FEW050 BKN250
     FM250900 26005KT 6SM BR FEW030 SCT250
      TEMPO 2511/2513 4SM BR
     FM251500 31007KT P6SM SKC
     FM260000 VRB04KT P6SM SKC=



000
FTUS43 KLSX 242300
TAFCOU
TAF
KCOU 242336Z 2500/2524 19007KT P6SM FEW050 BKN250
     FM250700 24006KT 3SM BR FEW050 SCT250
     FM251100 29005KT 2SM BR SKC
     FM251500 33006KT P6SM SKC=



000
FTUS43 KLSX 242000 AAA
TAFSTL
TAF AMD
KSTL 242052Z 2421/2524 23006KT P6SM BKN250
     FM250000 17005KT P6SM BKN250
     FM250900 28005KT P6SM SCT250
      TEMPO 2511/2514 5SM BR
     FM251500 31007KT P6SM SKC=



000
FTUS43 KLSX 241900 AAA
TAFUIN
TAF AMD
KUIN 241904Z 2419/2518 20006KT P6SM BKN007
     FM242000 20007KT P6SM SCT007 BKN250
     FM242100 20008KT P6SM BKN250
     FM250400 28006KT 3SM BR SCT250
     FM251500 31006KT P6SM SKC=



000
FTUS43 KLSX 241800 AAA
TAFCOU
TAF AMD
KCOU 241800Z 2418/2518 18009KT P6SM BKN050 BKN250
     FM250600 25005KT 3SM BR SCT250
     FM251500 32007KT P6SM SKC=



000
FTUS43 KLSX 241700
TAFSUS
TAF
KSUS 241720Z 2418/2518 24005KT P6SM SCT020 BKN250
     FM250000 VRB03KT P6SM SCT250
     FM250900 28005KT 5SM BR SCT250
      TEMPO 2511/2514 3SM BR
     FM251500 30007KT P6SM SKC=



000
FTUS43 KLSX 241700
TAFUIN
TAF
KUIN 241720Z 2418/2518 21006KT 1SM BR OVC004
     FM242000 20007KT P6SM BKN012
     FM242100 20008KT P6SM BKN250
     FM250400 28006KT 3SM BR SCT250
     FM251500 31006KT P6SM SKC=



000
FTUS43 KLSX 241700
TAFSTL
TAF
KSTL 241720Z 2418/2524 23006KT P6SM SCT030 BKN250
     FM250000 17005KT P6SM SCT250
     FM250900 28005KT P6SM SCT250
      TEMPO 2511/2514 5SM BR
     FM251500 31007KT P6SM SKC=



000
FTUS43 KLSX 241700
TAFCOU
TAF
KCOU 241720Z 2418/2518 20009KT P6SM BKN025 BKN250
     FM250600 25005KT 3SM BR SCT250
     FM251500 32007KT P6SM SKC=



000
FTUS43 KLSX 241600 AAC
TAFUIN
TAF AMD
KUIN 241645Z 2417/2512 21005KT 1/4SM FG VV002
     FM241800 20006KT 1SM BR OVC004
     FM241900 20006KT 2SM BR BKN006
     FM242000 20007KT P6SM BKN012
     FM242100 20008KT P6SM SCT250
     FM250400 28006KT 3SM BR SCT250=



000
FTUS43 KLSX 241500 AAB
TAFUIN
TAF AMD
KUIN 241507Z 2415/2512 18005KT 1/4SM FG VV002
     FM241700 20006KT 1SM BR OVC004
     FM241900 20006KT 2SM BR BKN006
     FM242000 20007KT P6SM BKN012
     FM242100 20008KT P6SM SCT250
     FM250400 28006KT 3SM BR SCT250=



000
FTUS43 KLSX 241400 AAB
TAFCOU
TAF AMD
KCOU 241454Z 2415/2512 19005KT 3SM BR BKN008
     FM241700 20009KT P6SM SCT020 BKN250
     FM250600 25005KT 3SM BR SCT250=



000
FTUS43 KLSX 241400 AAB
TAFSTL
TAF AMD
KSTL 241453Z 2415/2518 26006KT P6SM SCT008 BKN016 BKN250
     FM241530 23006KT P6SM SCT030 BKN250
     FM250000 17005KT P6SM SCT250
     FM250900 28005KT P6SM SCT250=



000
FTUS43 KLSX 241400 AAA
TAFSUS
TAF AMD
KSUS 241410Z 2414/2512 24005KT P6SM SCT020 BKN200
      TEMPO 2414/2415 BKN020
     FM250000 VRB03KT P6SM SCT250=



000
FTUS43 KLSX 241400 AAA
TAFSUS
TAF AMD
KSUS 241410Z 2414/2512 24005KT P6SM SCT020 BKN200
      TEMPO 2414/2415 BKN020
     FM250000 VRB03KT P6SM SCT250=



000
FTUS43 KLSX 241300 AAA
TAFUIN
TAF AMD
KUIN 241345Z 2414/2512 23005KT 1/4SM FG VV002
     FM241500 20006KT 2SM BR BKN006
     FM241600 20007KT P6SM BKN012
     FM241700 20008KT P6SM SCT250
     FM250400 28006KT 3SM BR SCT250=



000
FTUS43 KLSX 241200 AAA
TAFCOU
TAF AMD
KCOU 241258Z 2413/2512 VRB04KT 1SM BR OVC008
     FM241500 19007KT 3SM BR BKN015
     FM241700 20009KT P6SM SCT020
     FM250600 25005KT 3SM BR SCT250=



000
FTUS43 KLSX 241200 AAA
TAFSTL
TAF AMD
KSTL 241256Z 2413/2518 VRB04KT P6SM BKN015
      TEMPO 2413/2415 BKN007
     FM241500 23006KT P6SM SCT030
     FM250000 17005KT P6SM SCT250
     FM250900 28005KT P6SM SCT250=



000
FTUS43 KLSX 241100
TAFSTL
TAF
KSTL 241120Z 2412/2518 VRB04KT P6SM SCT015 BKN035
      TEMPO 2412/2415 BKN025
     FM241500 23006KT P6SM SCT030
     FM250000 17005KT P6SM SCT250
     FM250900 28005KT P6SM SCT250=



000
FTUS43 KLSX 241100
TAFSUS
TAF
KSUS 241120Z 2412/2512 00000KT P6SM BKN025
     FM241500 24005KT P6SM SCT030
     FM250000 VRB03KT P6SM SCT250=



000
FTUS43 KLSX 241100
TAFCOU
TAF
KCOU 241120Z 2412/2512 VRB04KT 1/4SM FG OVC012
     FM241400 19007KT 2SM BR BKN015
     FM241700 20009KT P6SM SCT020
     FM250600 25005KT 3SM BR SCT250=



000
FTUS43 KLSX 241100
TAFUIN
TAF
KUIN 241120Z 2412/2512 VRB04KT 1/4SM FG VV002
     FM241400 20006KT 2SM BR BKN006
     FM241500 20007KT P6SM BKN012
     FM241700 20008KT P6SM SCT250
     FM250400 28006KT 3SM BR SCT250=



000
FTUS43 KLSX 240900 AAB
TAFUIN
TAF AMD
KUIN 240959Z 2410/2506 VRB04KT 3SM BR BKN006
      TEMPO 2410/2412 1/4SM FG VV002
     FM241500 20007KT P6SM FEW015 SCT030
     FM242100 20010KT P6SM FEW040 SCT250
     FM250000 20006KT P6SM FEW040 SCT250=



000
FTUS43 KLSX 240900 AAB
TAFUIN
TAF AMD
KUIN 240959Z 2410/2506 VRB04KT 3SM BR BKN006
      TEMPO 2410/2412 1/4SM FG VV002
     FM241500 20007KT P6SM FEW015 SCT030
     FM242100 20010KT P6SM FEW040 SCT250
     FM250000 20006KT P6SM FEW040 SCT250=



000
FTUS43 KLSX 240900 AAC
TAFCOU
TAF AMD
KCOU 240958Z 2410/2506 VRB04KT 3SM BR SCT007 BKN010
      TEMPO 2410/2412 2SM BR
     FM241500 19007KT P6SM FEW015 SCT030
     FM242100 20010KT P6SM FEW040 SCT250
     FM250000 20007KT P6SM FEW050 SCT250=



000
FTUS43 KLSX 240900 AAC
TAFCOU
TAF AMD
KCOU 240958Z 2410/2506 VRB04KT 3SM BR SCT007 BKN010
      TEMPO 2410/2412 2SM BR
     FM241500 19007KT P6SM FEW015 SCT030
     FM242100 20010KT P6SM FEW040 SCT250
     FM250000 20007KT P6SM FEW050 SCT250=



000
FTUS43 KLSX 240900 AAB
TAFCOU
TAF AMD
KCOU 240900Z 2409/2506 VRB04KT 1/4SM FG VV002
     FM241300 VRB04KT 2SM BR BKN007
     FM241500 19007KT P6SM FEW015 SCT030
     FM242100 20010KT P6SM FEW040 SCT250
     FM250000 20007KT P6SM FEW050 SCT250=



000
FTUS43 KLSX 240800 AAA
TAFSTL
TAF AMD
KSTL 240858Z 2409/2512 VRB04KT P6SM BKN035
     FM241000 VRB04KT 5SM BR SCT008 BKN015
     FM241500 24006KT P6SM FEW015 SCT030
     FM242100 22008KT P6SM FEW040 SCT250
     FM250000 18005KT P6SM SCT250
     FM250900 26005KT P6SM FEW050 SCT250=



000
FTUS43 KLSX 240800 AAA
TAFUIN
TAF AMD
KUIN 240800Z 2408/2506 VRB04KT 3SM BR BKN006
     FM241500 20007KT P6SM FEW015 SCT030
     FM242100 20010KT P6SM FEW040 SCT250
     FM250000 20006KT P6SM FEW040 SCT250=



000
FTUS43 KLSX 240600 AAA
TAFCOU
TAF AMD
KCOU 240629Z 2406/2506 VRB04KT 1SM BR BKN030
      TEMPO 2406/2410 1/4SM FG
     FM241500 19007KT P6SM FEW015 SCT030
     FM242100 20010KT P6SM FEW040 SCT250
     FM250000 20007KT P6SM FEW050 SCT250=



000
FTUS43 KLSX 240500
TAFCOU
TAF
KCOU 240520Z 2406/2506 VRB04KT P6SM BKN020
     FM240900 VRB04KT 2SM BR BKN015
     FM241500 19007KT P6SM FEW015 SCT030
     FM242100 20010KT P6SM FEW040 SCT250
     FM250000 20007KT P6SM FEW050 SCT250=



000
FTUS43 KLSX 240500
TAFSTL
TAF
KSTL 240520Z 2406/2512 VRB04KT P6SM BKN035
     FM241000 VRB04KT 5SM BR BKN015
     FM241500 24006KT P6SM FEW015 SCT030
     FM242100 22008KT P6SM FEW040 SCT250
     FM250000 18005KT P6SM SCT250
     FM250900 26005KT P6SM FEW050 SCT250=



000
FTUS43 KLSX 240500
TAFSUS
TAF
KSUS 240520Z 2406/2506 00000KT P6SM BKN035
     FM241000 00000KT 3SM BR BKN015
     FM241500 24005KT P6SM FEW015 SCT030
     FM242100 22007KT P6SM FEW040 SCT250
     FM250000 VRB03KT P6SM SCT250=



000
FTUS43 KLSX 240500
TAFUIN
TAF
KUIN 240520Z 2406/2506 23005KT P6SM BKN020
     FM240900 VRB04KT 2SM BR BKN010
     FM241500 20007KT P6SM FEW015 SCT030
     FM242100 20010KT P6SM FEW040 SCT250
     FM250000 20006KT P6SM FEW040 SCT250=



000
FTUS43 KLSX 240300 AAB
TAFSTL
TAF AMD
KSTL 240323Z 2403/2506 VRB04KT P6SM BKN035
     FM240900 VRB04KT 5SM BR BKN015
     FM241500 24006KT P6SM FEW015 SCT030
     FM242100 21007KT P6SM FEW040 SCT250
     FM250000 18005KT P6SM SCT250=



000
FTUS43 KLSX 240300 AAB
TAFSTL
TAF AMD
KSTL 240323Z 2403/2506 VRB04KT P6SM BKN035
     FM240900 VRB04KT 5SM BR BKN015
     FM241500 24006KT P6SM FEW015 SCT030
     FM242100 21007KT P6SM FEW040 SCT250
     FM250000 18005KT P6SM SCT250=



000
FTUS43 KLSX 240100 AAA
TAFSTL
TAF AMD
KSTL 240125Z 2401/2506 17005KT P6SM BKN030
      TEMPO 2409/2413 5SM BR BKN015
     FM241500 24006KT P6SM FEW015 SCT030
     FM242100 21007KT P6SM FEW040 SCT250
     FM250000 18005KT P6SM SCT250=



000
FTUS43 KLSX 232300
TAFCOU
TAF
KCOU 232324Z 2400/2424 20005KT P6SM BKN030
     FM240100 21005KT P6SM BKN030
     FM241000 VRB04KT 2SM BR BKN015
     FM241500 18007KT P6SM FEW015 SCT030
     FM242100 20010KT P6SM FEW040 SCT250=



000
FTUS43 KLSX 232300
TAFSTL
TAF
KSTL 232324Z 2400/2506 17005KT P6SM SCT040 BKN120
     FM240400 VRB04KT P6SM BKN030
      TEMPO 2409/2413 5SM BR BKN015
     FM241500 24006KT P6SM FEW015 SCT030
     FM242100 21007KT P6SM FEW040 SCT250
     FM250000 18005KT P6SM SCT250=



000
FTUS43 KLSX 232300
TAFUIN
TAF
KUIN 232324Z 2400/2424 22005KT P6SM BKN030
     FM241000 VRB04KT 2SM BR BKN015
     FM241500 19007KT P6SM FEW015 SCT030
     FM242100 20009KT P6SM FEW040 SCT250=



000
FTUS43 KLSX 232300
TAFSUS
TAF
KSUS 232324Z 2400/2424 VRB03KT P6SM SCT040 BKN120
     FM240400 00000KT P6SM BKN030
      TEMPO 2408/2412 3SM BR BKN015
     FM241500 24005KT P6SM FEW015 SCT030
     FM242100 21006KT P6SM FEW040 SCT250=



000
FTUS43 KLSX 232000 AAA
TAFSTL
TAF AMD
KSTL 232050Z 2321/2424 18005KT P6SM BKN050
     FM240400 22004KT P6SM BKN030
      TEMPO 2409/2413 5SM BR BKN015
     FM241500 20005KT P6SM FEW015 SCT030=



000
FTUS43 KLSX 231800 AAA
TAFUIN
TAF AMD
KUIN 231845Z 2319/2418 22005KT P6SM BKN030
     FM241000 20004KT 2SM BR BKN015
     FM241500 20005KT P6SM FEW015 SCT030=



000
FTUS43 KLSX 231800 AAA
TAFUIN
TAF AMD
KUIN 231845Z 2319/2418 22005KT P6SM BKN030
     FM241000 20004KT 2SM BR BKN015
     FM241500 20005KT P6SM FEW015 SCT030=



000
FTUS43 KLSX 231700 RRA
TAFCOU
TAF
KCOU 231741Z 2318/2418 20009KT P6SM BKN050
     FM240100 21005KT P6SM BKN030
     FM241000 21004KT 3SM BR BKN015
     FM241500 16006KT P6SM FEW015 SCT030=



000
FTUS43 KLSX 231700 RRA
TAFSTL
TAF
KSTL 231741Z 2318/2424 19007KT P6SM SCT150 BKN250
     FM232000 18005KT P6SM BKN050 BKN200
     FM240400 22004KT P6SM BKN030
      TEMPO 2409/2413 5SM BR BKN015
     FM241500 20005KT P6SM FEW015 SCT030=



000
FTUS43 KLSX 231700 RRA
TAFSUS
TAF
KSUS 231741Z 2318/2418 18007KT P6SM SCT120 BKN250
     FM232000 18005KT P6SM BKN060 BKN200
     FM240400 20003KT P6SM BKN030
      TEMPO 2408/2412 3SM BR BKN015
     FM241500 20005KT P6SM FEW015 SCT030=



000
FTUS43 KLSX 231700 RRA
TAFUIN
TAF
KUIN 231741Z 2318/2418 19009KT P6SM BKN050
     FM240100 22005KT P6SM BKN030
     FM241000 20004KT 2SM BR BKN015
     FM241500 20005KT P6SM FEW015 SCT030=



000
FTUS43 KLSX 231700 RRA
TAFUIN
TAF
KUIN 231741Z 2318/2418 19009KT P6SM BKN050
     FM240100 22005KT P6SM BKN030
     FM241000 20004KT 2SM BR BKN015
     FM241500 20005KT P6SM FEW015 SCT030=



000
FTUS43 KLSX 231700 RRA
TAFCOU
TAF
KCOU 231741Z 2318/2418 20009KT P6SM BKN050
     FM240100 21005KT P6SM BKN030
     FM241000 21004KT 3SM BR BKN015
     FM241500 16006KT P6SM FEW015 SCT030=



000
FTUS43 KLSX 231700 RRA
TAFSUS
TAF
KSUS 231741Z 2318/2418 18007KT P6SM SCT120 BKN250
     FM232000 18005KT P6SM BKN060 BKN200
     FM240400 20003KT P6SM BKN030
      TEMPO 2408/2412 3SM BR BKN015
     FM241500 20005KT P6SM FEW015 SCT030=



000
FTUS43 KLSX 231700 RRA
TAFSTL
TAF
KSTL 231741Z 2318/2424 19007KT P6SM SCT150 BKN250
     FM232000 18005KT P6SM BKN050 BKN200
     FM240400 22004KT P6SM BKN030
      TEMPO 2409/2413 5SM BR BKN015
     FM241500 20005KT P6SM FEW015 SCT030=



000
FTUS43 KLSX 231500 AAA
TAFSTL
TAF AMD
KSTL 231516Z 2315/2418 18007KT P6SM SCT150 BKN250
     FM232000 18005KT P6SM BKN060 BKN200
     FM240400 22004KT P6SM SCT050
      TEMPO 2409/2413 5SM BR=



000
FTUS43 KLSX 231100
TAFSTL
TAF
KSTL 231140Z 2312/2418 15005KT P6SM BKN250
     FM231600 18007KT P6SM SCT120 BKN250
     FM232000 18005KT P6SM BKN060 BKN200
     FM240400 22004KT P6SM SCT050
      TEMPO 2409/2413 5SM BR=



000
FTUS43 KLSX 231100
TAFSUS
TAF
KSUS 231140Z 2312/2412 VRB03KT P6SM BKN250
     FM231600 18007KT P6SM SCT120 BKN250
     FM232000 18005KT P6SM BKN060 BKN200
     FM240400 20003KT P6SM SCT050
      TEMPO 2408/2412 3SM BR=



000
FTUS43 KLSX 231100
TAFCOU
TAF
KCOU 231140Z 2312/2412 16007KT P6SM BKN050 OVC200
     FM231900 20009KT P6SM BKN050 BKN100
     FM240100 21005KT P6SM SCT030
     FM241000 21004KT 3SM BR SCT030=



000
FTUS43 KLSX 231100
TAFUIN
TAF
KUIN 231140Z 2312/2412 17008KT P6SM SCT100 BKN200
     FM231500 19009KT P6SM BKN050 OVC200
     FM240100 22005KT P6SM SCT030
     FM241000 20004KT 2SM BR SCT030=



000
FTUS43 KLSX 230900 AAA
TAFSTL
TAF AMD
KSTL 230908Z 2309/2412 12005KT P6SM SCT250
     FM231400 18007KT P6SM SCT120 BKN250
     FM240000 18005KT P6SM SCT060=



000
FTUS43 KLSX 230500 AAA
TAFSUS
TAF AMD
KSUS 230556Z 2306/2406 00000KT 5SM BR SCT250
      TEMPO 2306/2310 1SM BR
     FM231400 18006KT P6SM SCT120 BKN250
     FM240000 VRB03KT P6SM SCT060=



000
FTUS43 KLSX 230500
TAFCOU
TAF
KCOU 230520Z 2306/2406 14007KT P6SM SCT250
     FM231100 15008KT P6SM SCT120 BKN250
     FM231500 19009KT P6SM SCT050 BKN100
     FM240000 19005KT P6SM SCT050=



000
FTUS43 KLSX 230500
TAFSTL
TAF
KSTL 230520Z 2306/2412 13006KT P6SM SCT250
     FM231400 18007KT P6SM SCT120 BKN250
     FM240000 18005KT P6SM SCT060=



000
FTUS43 KLSX 230500
TAFUIN
TAF
KUIN 230520Z 2306/2406 14006KT P6SM SCT250
     FM231200 17008KT P6SM SCT120 BKN250
     FM231700 19009KT P6SM SCT040 BKN080
     FM240000 19005KT P6SM SCT040=



000
FTUS43 KLSX 230500
TAFSUS
TAF
KSUS 230520Z 2306/2406 VRB03KT P6SM SCT250
      TEMPO 2308/2312 4SM BR
     FM231400 18006KT P6SM SCT120 BKN250
     FM240000 VRB03KT P6SM SCT060=



000
FTUS43 KLSX 230300 AAA
TAFSTL
TAF AMD
KSTL 230306Z 2303/2406 12005KT P6SM SKC
     FM231400 17007KT P6SM SCT120 BKN250
     FM240000 18005KT P6SM SCT060 BKN120=



000
FTUS43 KLSX 222300
TAFSTL
TAF
KSTL 222328Z 2300/2406 12005KT P6SM SKC
     FM231400 17007KT P6SM SCT120 BKN250
     FM240000 18005KT P6SM SCT060 BKN120=



000
FTUS43 KLSX 222300
TAFSUS
TAF
KSUS 222328Z 2300/2324 VRB03KT P6SM SKC
     FM231400 17006KT P6SM SCT120 BKN250=



000
FTUS43 KLSX 222300
TAFUIN
TAF
KUIN 222328Z 2300/2324 13006KT P6SM SKC
     FM231000 16007KT P6SM SCT120 BKN250
     FM231500 19009KT P6SM SCT040 BKN080=



000
FTUS43 KLSX 222300
TAFCOU
TAF
KCOU 222328Z 2300/2324 13006KT P6SM SKC
     FM231000 15007KT P6SM SCT120 BKN250
     FM231500 19009KT P6SM SCT050 BKN100=



000
FTUS43 KLSX 222000 AAA
TAFSTL
TAF AMD
KSTL 222050Z 2221/2324 13005KT P6SM SKC
     FM231400 16005KT P6SM BKN250=



000
FTUS43 KLSX 221700
TAFUIN
TAF
KUIN 221720Z 2218/2318 14007KT P6SM SKC
     FM231000 16007KT P6SM BKN200=



000
FTUS43 KLSX 221700
TAFCOU
TAF
KCOU 221720Z 2218/2318 14008KT P6SM SKC
     FM231000 16007KT P6SM BKN200=



000
FTUS43 KLSX 221700
TAFSTL
TAF
KSTL 221720Z 2218/2324 11007KT P6SM SKC
     FM231400 16005KT P6SM BKN250=



000
FTUS43 KLSX 221700
TAFSUS
TAF
KSUS 221720Z 2218/2318 11006KT P6SM SKC
     FM230200 VRB03KT P6SM SKC
     FM231400 16005KT P6SM BKN250=



000
FTUS43 KLSX 221700
TAFSTL
TAF
KSTL 221720Z 2218/2324 11007KT P6SM SKC
     FM231400 16005KT P6SM BKN250=



000
FTUS43 KLSX 221700
TAFUIN
TAF
KUIN 221720Z 2218/2318 14007KT P6SM SKC
     FM231000 16007KT P6SM BKN200=



000
FTUS43 KLSX 221700
TAFCOU
TAF
KCOU 221720Z 2218/2318 14008KT P6SM SKC
     FM231000 16007KT P6SM BKN200=



000
FTUS43 KLSX 221700
TAFSUS
TAF
KSUS 221720Z 2218/2318 11006KT P6SM SKC
     FM230200 VRB03KT P6SM SKC
     FM231400 16005KT P6SM BKN250=



000
FTUS43 KLSX 221400 AAA
TAFSTL
TAF AMD
KSTL 221454Z 2215/2318 11007KT P6SM SKC=



000
FTUS43 KLSX 221100
TAFSTL
TAF
KSTL 221140Z 2212/2318 09004KT P6SM SKC
     FM221500 11007KT P6SM SKC
     FM230100 12004KT P6SM SKC=



000
FTUS43 KLSX 221100
TAFSUS
TAF
KSUS 221140Z 2212/2312 09003KT P6SM SKC
     FM221500 11006KT P6SM SKC
     FM230200 VRB03KT P6SM SKC=



000
FTUS43 KLSX 221100
TAFCOU
TAF
KCOU 221140Z 2212/2312 11007KT P6SM SKC
     FM221600 14008KT P6SM SKC
     FM231000 16007KT P6SM BKN200=



000
FTUS43 KLSX 221100
TAFUIN
TAF
KUIN 221140Z 2212/2312 11005KT P6SM SKC
     FM221600 14007KT P6SM SKC
     FM231000 16007KT P6SM BKN200=



000
FTUS43 KLSX 220900 AAA
TAFSTL
TAF AMD
KSTL 220911Z 2209/2312 09004KT P6SM SKC
     FM221500 11007KT P6SM SKC
     FM230100 12004KT P6SM SKC=



000
FTUS43 KLSX 220500
TAFUIN
TAF
KUIN 220520Z 2206/2306 09006KT P6SM SKC
     FM221200 11005KT P6SM SKC
     FM221800 14008KT P6SM SKC
     FM230100 13006KT P6SM SCT250=



000
FTUS43 KLSX 220500
TAFSUS
TAF
KSUS 220520Z 2206/2306 VRB03KT P6SM SKC
     FM220800 VRB03KT P6SM SKC
      TEMPO 2208/2211 2SM BR
     FM221200 11004KT P6SM SKC
     FM221700 13007KT P6SM SKC=



000
FTUS43 KLSX 220500
TAFSTL
TAF
KSTL 220520Z 2206/2312 08008KT P6SM SKC
     FM221200 09007KT P6SM SKC
     FM221700 11008KT P6SM SKC
     FM230100 14005KT P6SM SKC=



000
FTUS43 KLSX 220500
TAFCOU
TAF
KCOU 220520Z 2206/2306 10007KT P6SM SKC
     FM221200 11006KT P6SM SKC
     FM221800 15010KT P6SM SKC
     FM230100 13007KT P6SM SCT250=



000
FTUS43 KLSX 220500
TAFUIN
TAF
KUIN 220520Z 2206/2306 09006KT P6SM SKC
     FM221200 11005KT P6SM SKC
     FM221800 14008KT P6SM SKC
     FM230100 13006KT P6SM SCT250=



000
FTUS43 KLSX 220500
TAFSUS
TAF
KSUS 220520Z 2206/2306 VRB03KT P6SM SKC
     FM220800 VRB03KT P6SM SKC
      TEMPO 2208/2211 2SM BR
     FM221200 11004KT P6SM SKC
     FM221700 13007KT P6SM SKC=



000
FTUS43 KLSX 220500
TAFSTL
TAF
KSTL 220520Z 2206/2312 08008KT P6SM SKC
     FM221200 09007KT P6SM SKC
     FM221700 11008KT P6SM SKC
     FM230100 14005KT P6SM SKC=



000
FTUS43 KLSX 220500
TAFCOU
TAF
KCOU 220520Z 2206/2306 10007KT P6SM SKC
     FM221200 11006KT P6SM SKC
     FM221800 15010KT P6SM SKC
     FM230100 13007KT P6SM SCT250=



000
FTUS43 KLSX 220300 AAA
TAFSTL
TAF AMD
KSTL 220306Z 2203/2306 07004KT P6SM SKC
     FM221200 VRB05KT P6SM SKC
     FM221700 11005KT P6SM SKC
     FM230100 14005KT P6SM SKC=



    US Dept of Commerce
    National Oceanic and Atmospheric Administration
    National Weather Service
    1325 East West Highway
    Silver Spring, MD 20910
    Page Author: NWS Internet Services Team
Disclaimer
Information Quality
Credits
Glossary
Privacy Policy
Freedom of Information Act (FOIA)
About Us
Career Opportunities